sensor_id;sensor_type;location;lat;lon;timestamp;temperature;humidity
31271;DHT22;17904;47.420;9.310;2022-08-19T00:01:52;15.60;99.90
31271;DHT22;17904;47.420;9.310;2022-08-19T00:04:22;15.60;99.90
31271;DHT22;17904;47.420;9.310;2022-08-19T00:06:51;15.60;99.90
31271;DHT22;17904;47.420;9.310;2022-08-19T00:09:19;15.60;99.90
31271;DHT22;17904;47.420;9.310;2022-08-19T00:11:46;15.60;99.90
31271;DHT22;17904;47.420;9.310;2022-08-19T00:14:15;15.60;99.90
31271;DHT22;17904;47.420;9.310;2022-08-19T00:16:44;15.60;99.90
31271;DHT22;17904;47.420;9.310;2022-08-19T00:19:12;15.70;99.90
31271;DHT22;17904;47.420;9.310;2022-08-19T00:21:39;15.70;99.90
31271;DHT22;17904;47.420;9.310;2022-08-19T00:24:11;15.70;99.90
31271;DHT22;17904;47.420;9.310;2022-08-19T00:26:39;15.70;99.90
31271;DHT22;17904;47.420;9.310;2022-08-19T00:29:08;15.70;99.90
31271;DHT22;17904;47.420;9.310;2022-08-19T00:31:35;15.70;99.90
31271;DHT22;17904;47.420;9.310;2022-08-19T00:34:02;15.70;99.90
31271;DHT22;17904;47.420;9.310;2022-08-19T00:36:29;15.70;99.90
31271;DHT22;17904;47.420;9.310;2022-08-19T00:38:56;15.70;99.90
31271;DHT22;17904;47.420;9.310;2022-08-19T00:41:23;15.70;99.90
31271;DHT22;17904;47.420;9.310;2022-08-19T00:46:25;15.70;99.90
31271;DHT22;17904;47.420;9.310;2022-08-19T00:48:52;15.70;99.90
31271;DHT22;17904;47.420;9.310;2022-08-19T00:51:18;15.70;99.90
31271;DHT22;17904;47.420;9.310;2022-08-19T00:53:45;15.70;99.90
31271;DHT22;17904;47.420;9.310;2022-08-19T00:56:12;15.70;99.90
31271;DHT22;17904;47.420;9.310;2022-08-19T00:58:39;15.70;99.90
31271;DHT22;17904;47.420;9.310;2022-08-19T01:01:06;15.70;99.90
31271;DHT22;17904;47.420;9.310;2022-08-19T01:03:34;15.70;99.90
31271;DHT22;17904;47.420;9.310;2022-08-19T01:06:21;15.70;99.90
31271;DHT22;17904;47.420;9.310;2022-08-19T01:08:48;15.70;99.90
31271;DHT22;17904;47.420;9.310;2022-08-19T01:11:16;15.70;99.90
31271;DHT22;17904;47.420;9.310;2022-08-19T01:13:43;15.70;99.90
31271;DHT22;17904;47.420;9.310;2022-08-19T01:16:17;15.70;99.90
31271;DHT22;17904;47.420;9.310;2022-08-19T01:18:45;15.70;99.90
31271;DHT22;17904;47.420;9.310;2022-08-19T01:21:24;15.70;99.90
31271;DHT22;17904;47.420;9.310;2022-08-19T01:23:53;15.70;99.90
31271;DHT22;17904;47.420;9.310;2022-08-19T01:26:22;15.70;99.90
31271;DHT22;17904;47.420;9.310;2022-08-19T01:28:51;15.70;99.90
31271;DHT22;17904;47.420;9.310;2022-08-19T01:31:22;15.70;99.90
31271;DHT22;17904;47.420;9.310;2022-08-19T01:33:55;15.70;99.90
31271;DHT22;17904;47.420;9.310;2022-08-19T01:36:35;15.70;99.90
31271;DHT22;17904;47.420;9.310;2022-08-19T01:39:06;15.80;99.90
31271;DHT22;17904;47.420;9.310;2022-08-19T01:41:33;15.80;99.90
31271;DHT22;17904;47.420;9.310;2022-08-19T01:44:01;15.80;99.90
31271;DHT22;17904;47.420;9.310;2022-08-19T01:46:47;15.80;99.90
31271;DHT22;17904;47.420;9.310;2022-08-19T01:49:16;15.80;99.90
31271;DHT22;17904;47.420;9.310;2022-08-19T01:51:43;15.80;99.90
31271;DHT22;17904;47.420;9.310;2022-08-19T01:54:12;15.80;99.90
31271;DHT22;17904;47.420;9.310;2022-08-19T01:56:51;15.80;99.90
31271;DHT22;17904;47.420;9.310;2022-08-19T01:59:20;15.80;99.90
31271;DHT22;17904;47.420;9.310;2022-08-19T02:01:48;15.80;99.90
31271;DHT22;17904;47.420;9.310;2022-08-19T02:04:14;15.80;99.90
31271;DHT22;17904;47.420;9.310;2022-08-19T02:06:42;15.80;99.90
31271;DHT22;17904;47.420;9.310;2022-08-19T02:09:09;15.90;99.90
31271;DHT22;17904;47.420;9.310;2022-08-19T02:11:37;15.90;99.90
31271;DHT22;17904;47.420;9.310;2022-08-19T02:14:06;15.90;99.90
31271;DHT22;17904;47.420;9.310;2022-08-19T02:16:34;15.80;99.90
31271;DHT22;17904;47.420;9.310;2022-08-19T02:19:02;15.80;99.90
31271;DHT22;17904;47.420;9.310;2022-08-19T02:21:29;15.90;99.90
31271;DHT22;17904;47.420;9.310;2022-08-19T02:23:57;15.90;99.90
31271;DHT22;17904;47.420;9.310;2022-08-19T02:26:24;15.90;99.90
31271;DHT22;17904;47.420;9.310;2022-08-19T02:28:53;15.90;99.90
31271;DHT22;17904;47.420;9.310;2022-08-19T02:31:23;15.90;99.90
31271;DHT22;17904;47.420;9.310;2022-08-19T02:33:52;15.90;99.90
31271;DHT22;17904;47.420;9.310;2022-08-19T02:36:23;15.90;99.90
31271;DHT22;17904;47.420;9.310;2022-08-19T02:38:51;15.80;99.90
31271;DHT22;17904;47.420;9.310;2022-08-19T02:41:29;15.80;99.90
31271;DHT22;17904;47.420;9.310;2022-08-19T02:43:59;15.80;99.90
31271;DHT22;17904;47.420;9.310;2022-08-19T02:46:47;15.80;99.90
31271;DHT22;17904;47.420;9.310;2022-08-19T02:49:19;15.80;99.90
31271;DHT22;17904;47.420;9.310;2022-08-19T02:51:46;15.70;99.90
31271;DHT22;17904;47.420;9.310;2022-08-19T02:54:14;15.70;99.90
31271;DHT22;17904;47.420;9.310;2022-08-19T02:56:42;15.70;99.90
31271;DHT22;17904;47.420;9.310;2022-08-19T02:59:09;15.70;99.90
31271;DHT22;17904;47.420;9.310;2022-08-19T03:01:39;15.70;99.90
31271;DHT22;17904;47.420;9.310;2022-08-19T03:04:09;15.70;99.90
31271;DHT22;17904;47.420;9.310;2022-08-19T03:06:37;15.70;99.90
31271;DHT22;17904;47.420;9.310;2022-08-19T03:09:04;15.70;99.90
31271;DHT22;17904;47.420;9.310;2022-08-19T03:11:31;15.70;99.90
31271;DHT22;17904;47.420;9.310;2022-08-19T03:13:59;15.70;99.90
31271;DHT22;17904;47.420;9.310;2022-08-19T03:16:30;15.70;99.90
31271;DHT22;17904;47.420;9.310;2022-08-19T03:19:00;15.70;99.90
31271;DHT22;17904;47.420;9.310;2022-08-19T03:21:30;15.70;99.90
31271;DHT22;17904;47.420;9.310;2022-08-19T03:24:03;15.70;99.90
31271;DHT22;17904;47.420;9.310;2022-08-19T03:26:30;15.60;99.90
31271;DHT22;17904;47.420;9.310;2022-08-19T03:29:01;15.60;99.90
31271;DHT22;17904;47.420;9.310;2022-08-19T03:31:32;15.60;99.90
31271;DHT22;17904;47.420;9.310;2022-08-19T03:34:24;15.60;99.90
31271;DHT22;17904;47.420;9.310;2022-08-19T03:36:56;15.60;99.90
31271;DHT22;17904;47.420;9.310;2022-08-19T03:39:24;15.70;99.90
31271;DHT22;17904;47.420;9.310;2022-08-19T03:41:53;15.60;99.90
31271;DHT22;17904;47.420;9.310;2022-08-19T03:44:40;15.70;99.90
31271;DHT22;17904;47.420;9.310;2022-08-19T03:47:09;15.60;99.90
31271;DHT22;17904;47.420;9.310;2022-08-19T03:49:36;15.70;99.90
31271;DHT22;17904;47.420;9.310;2022-08-19T03:52:04;15.60;99.90
31271;DHT22;17904;47.420;9.310;2022-08-19T03:54:34;15.60;99.90
31271;DHT22;17904;47.420;9.310;2022-08-19T03:57:02;15.60;99.90
31271;DHT22;17904;47.420;9.310;2022-08-19T03:59:32;15.60;99.90
31271;DHT22;17904;47.420;9.310;2022-08-19T04:02:02;15.60;99.90
31271;DHT22;17904;47.420;9.310;2022-08-19T04:04:29;15.60;99.90
31271;DHT22;17904;47.420;9.310;2022-08-19T04:06:57;15.60;99.90
31271;DHT22;17904;47.420;9.310;2022-08-19T04:09:24;15.50;99.90
31271;DHT22;17904;47.420;9.310;2022-08-19T04:11:55;15.60;99.90
31271;DHT22;17904;47.420;9.310;2022-08-19T04:14:26;15.50;99.90
31271;DHT22;17904;47.420;9.310;2022-08-19T04:16:53;15.60;99.90
31271;DHT22;17904;47.420;9.310;2022-08-19T04:19:20;15.60;99.90
31271;DHT22;17904;47.420;9.310;2022-08-19T04:21:50;15.60;99.90
31271;DHT22;17904;47.420;9.310;2022-08-19T04:24:18;15.60;99.90
31271;DHT22;17904;47.420;9.310;2022-08-19T04:26:46;15.60;99.90
31271;DHT22;17904;47.420;9.310;2022-08-19T04:29:21;15.60;99.90
31271;DHT22;17904;47.420;9.310;2022-08-19T04:31:49;15.60;99.90
31271;DHT22;17904;47.420;9.310;2022-08-19T04:34:18;15.60;99.90
31271;DHT22;17904;47.420;9.310;2022-08-19T04:36:49;15.70;99.90
31271;DHT22;17904;47.420;9.310;2022-08-19T04:39:20;15.70;99.90
31271;DHT22;17904;47.420;9.310;2022-08-19T04:41:47;15.70;99.90
31271;DHT22;17904;47.420;9.310;2022-08-19T04:44:34;15.70;99.90
31271;DHT22;17904;47.420;9.310;2022-08-19T04:47:05;15.70;99.90
31271;DHT22;17904;47.420;9.310;2022-08-19T04:49:37;15.80;99.90
31271;DHT22;17904;47.420;9.310;2022-08-19T04:52:04;15.80;99.90
31271;DHT22;17904;47.420;9.310;2022-08-19T04:54:30;15.80;99.90
31271;DHT22;17904;47.420;9.310;2022-08-19T04:57:08;15.80;99.90
31271;DHT22;17904;47.420;9.310;2022-08-19T04:59:38;15.80;99.90
31271;DHT22;17904;47.420;9.310;2022-08-19T05:02:08;15.80;99.90
31271;DHT22;17904;47.420;9.310;2022-08-19T05:04:35;15.80;99.90
31271;DHT22;17904;47.420;9.310;2022-08-19T05:07:07;15.80;99.90
31271;DHT22;17904;47.420;9.310;2022-08-19T05:09:34;15.80;99.90
31271;DHT22;17904;47.420;9.310;2022-08-19T05:12:21;15.80;99.90
31271;DHT22;17904;47.420;9.310;2022-08-19T05:14:54;15.80;99.90
31271;DHT22;17904;47.420;9.310;2022-08-19T05:17:23;15.80;99.90
31271;DHT22;17904;47.420;9.310;2022-08-19T05:19:54;15.80;99.90
31271;DHT22;17904;47.420;9.310;2022-08-19T05:22:43;15.80;99.90
31271;DHT22;17904;47.420;9.310;2022-08-19T05:25:14;15.80;99.90
31271;DHT22;17904;47.420;9.310;2022-08-19T05:27:42;15.80;99.90
31271;DHT22;17904;47.420;9.310;2022-08-19T05:30:10;15.80;99.90
31271;DHT22;17904;47.420;9.310;2022-08-19T05:32:38;15.90;99.90
31271;DHT22;17904;47.420;9.310;2022-08-19T05:35:06;15.90;99.90
31271;DHT22;17904;47.420;9.310;2022-08-19T05:37:33;15.90;99.90
31271;DHT22;17904;47.420;9.310;2022-08-19T05:39:59;15.90;99.90
31271;DHT22;17904;47.420;9.310;2022-08-19T05:42:26;15.90;99.90
31271;DHT22;17904;47.420;9.310;2022-08-19T05:44:53;15.90;99.90
31271;DHT22;17904;47.420;9.310;2022-08-19T05:47:20;15.90;99.90
31271;DHT22;17904;47.420;9.310;2022-08-19T05:49:48;15.90;99.90
31271;DHT22;17904;47.420;9.310;2022-08-19T05:52:16;16.00;99.90
31271;DHT22;17904;47.420;9.310;2022-08-19T05:54:45;16.00;99.90
31271;DHT22;17904;47.420;9.310;2022-08-19T05:57:18;16.00;99.90
31271;DHT22;17904;47.420;9.310;2022-08-19T05:59:45;16.00;99.90
31271;DHT22;17904;47.420;9.310;2022-08-19T06:02:29;16.00;99.90
31271;DHT22;17904;47.420;9.310;2022-08-19T06:04:59;16.00;99.90
31271;DHT22;17904;47.420;9.310;2022-08-19T06:07:26;16.00;99.90
31271;DHT22;17904;47.420;9.310;2022-08-19T06:09:54;16.00;99.90
31271;DHT22;17904;47.420;9.310;2022-08-19T06:12:31;16.00;99.90
31271;DHT22;17904;47.420;9.310;2022-08-19T06:15:03;16.00;99.90
31271;DHT22;17904;47.420;9.310;2022-08-19T06:17:30;16.10;99.90
31271;DHT22;17904;47.420;9.310;2022-08-19T06:19:58;16.00;99.90
31271;DHT22;17904;47.420;9.310;2022-08-19T06:22:26;16.10;99.90
31271;DHT22;17904;47.420;9.310;2022-08-19T06:24:54;16.10;99.90
31271;DHT22;17904;47.420;9.310;2022-08-19T06:27:22;16.10;99.90
31271;DHT22;17904;47.420;9.310;2022-08-19T06:29:49;16.10;99.90
31271;DHT22;17904;47.420;9.310;2022-08-19T06:32:17;16.10;99.90
31271;DHT22;17904;47.420;9.310;2022-08-19T06:34:45;16.10;99.90
31271;DHT22;17904;47.420;9.310;2022-08-19T06:37:12;16.10;99.90
31271;DHT22;17904;47.420;9.310;2022-08-19T06:39:41;16.00;99.90
31271;DHT22;17904;47.420;9.310;2022-08-19T06:42:09;16.10;99.90
31271;DHT22;17904;47.420;9.310;2022-08-19T06:44:40;16.00;99.90
31271;DHT22;17904;47.420;9.310;2022-08-19T06:47:13;16.00;99.90
31271;DHT22;17904;47.420;9.310;2022-08-19T06:49:56;16.00;99.90
31271;DHT22;17904;47.420;9.310;2022-08-19T06:52:35;16.00;99.90
31271;DHT22;17904;47.420;9.310;2022-08-19T06:55:04;16.00;99.90
31271;DHT22;17904;47.420;9.310;2022-08-19T06:57:33;16.00;99.90
31271;DHT22;17904;47.420;9.310;2022-08-19T07:00:01;16.00;99.90
31271;DHT22;17904;47.420;9.310;2022-08-19T07:02:28;16.00;99.90
31271;DHT22;17904;47.420;9.310;2022-08-19T07:04:55;16.00;99.90
31271;DHT22;17904;47.420;9.310;2022-08-19T07:07:25;16.00;99.90
31271;DHT22;17904;47.420;9.310;2022-08-19T07:09:52;16.00;99.90
31271;DHT22;17904;47.420;9.310;2022-08-19T07:12:29;15.90;99.90
31271;DHT22;17904;47.420;9.310;2022-08-19T07:14:58;16.00;99.90
31271;DHT22;17904;47.420;9.310;2022-08-19T07:17:26;16.00;99.90
31271;DHT22;17904;47.420;9.310;2022-08-19T07:19:53;16.00;99.90
31271;DHT22;17904;47.420;9.310;2022-08-19T07:22:21;16.00;99.90
31271;DHT22;17904;47.420;9.310;2022-08-19T07:24:51;16.00;99.90
31271;DHT22;17904;47.420;9.310;2022-08-19T07:27:19;16.00;99.90
31271;DHT22;17904;47.420;9.310;2022-08-19T07:29:53;16.00;99.90
31271;DHT22;17904;47.420;9.310;2022-08-19T07:32:25;16.00;99.90
31271;DHT22;17904;47.420;9.310;2022-08-19T07:34:53;16.00;99.90
31271;DHT22;17904;47.420;9.310;2022-08-19T07:37:23;16.00;99.90
31271;DHT22;17904;47.420;9.310;2022-08-19T07:39:55;16.00;99.90
31271;DHT22;17904;47.420;9.310;2022-08-19T07:42:22;16.00;99.90
31271;DHT22;17904;47.420;9.310;2022-08-19T07:44:49;16.00;99.90
31271;DHT22;17904;47.420;9.310;2022-08-19T07:47:17;16.00;99.90
31271;DHT22;17904;47.420;9.310;2022-08-19T07:50:07;16.00;99.90
31271;DHT22;17904;47.420;9.310;2022-08-19T07:52:36;16.00;99.90
31271;DHT22;17904;47.420;9.310;2022-08-19T07:55:07;16.00;99.90
31271;DHT22;17904;47.420;9.310;2022-08-19T07:57:55;16.00;99.90
31271;DHT22;17904;47.420;9.310;2022-08-19T08:00:22;16.00;99.90
31271;DHT22;17904;47.420;9.310;2022-08-19T08:02:51;16.00;99.90
31271;DHT22;17904;47.420;9.310;2022-08-19T08:05:24;16.00;99.90
31271;DHT22;17904;47.420;9.310;2022-08-19T08:08:11;16.00;99.90
31271;DHT22;17904;47.420;9.310;2022-08-19T08:11:11;16.00;99.90
31271;DHT22;17904;47.420;9.310;2022-08-19T08:13:41;16.00;99.90
31271;DHT22;17904;47.420;9.310;2022-08-19T08:16:08;16.00;99.90
31271;DHT22;17904;47.420;9.310;2022-08-19T08:18:40;16.00;99.90
31271;DHT22;17904;47.420;9.310;2022-08-19T08:21:18;16.00;99.90
31271;DHT22;17904;47.420;9.310;2022-08-19T08:23:45;16.00;99.90
31271;DHT22;17904;47.420;9.310;2022-08-19T08:26:12;16.00;99.90
31271;DHT22;17904;47.420;9.310;2022-08-19T08:28:42;16.00;99.90
31271;DHT22;17904;47.420;9.310;2022-08-19T08:31:13;16.00;99.90
31271;DHT22;17904;47.420;9.310;2022-08-19T08:33:41;15.90;99.90
31271;DHT22;17904;47.420;9.310;2022-08-19T08:36:09;15.90;99.90
31271;DHT22;17904;47.420;9.310;2022-08-19T08:38:39;15.90;99.90
31271;DHT22;17904;47.420;9.310;2022-08-19T08:41:23;15.90;99.90
31271;DHT22;17904;47.420;9.310;2022-08-19T08:43:55;15.90;99.90
31271;DHT22;17904;47.420;9.310;2022-08-19T08:46:47;15.90;99.90
31271;DHT22;17904;47.420;9.310;2022-08-19T08:49:40;15.90;99.90
31271;DHT22;17904;47.420;9.310;2022-08-19T08:52:30;15.90;99.90
31271;DHT22;17904;47.420;9.310;2022-08-19T08:55:08;15.90;99.90
31271;DHT22;17904;47.420;9.310;2022-08-19T08:57:44;15.80;99.90
31271;DHT22;17904;47.420;9.310;2022-08-19T09:00:23;15.90;99.90
31271;DHT22;17904;47.420;9.310;2022-08-19T09:02:54;15.80;99.90
31271;DHT22;17904;47.420;9.310;2022-08-19T09:05:23;15.80;99.90
31271;DHT22;17904;47.420;9.310;2022-08-19T09:08:33;15.80;99.90
31271;DHT22;17904;47.420;9.310;2022-08-19T09:11:07;15.80;99.90
31271;DHT22;17904;47.420;9.310;2022-08-19T09:16:11;15.80;99.90
31271;DHT22;17904;47.420;9.310;2022-08-19T09:18:43;15.80;99.90
31271;DHT22;17904;47.420;9.310;2022-08-19T09:21:11;15.80;99.90
31271;DHT22;17904;47.420;9.310;2022-08-19T09:23:38;15.80;99.90
31271;DHT22;17904;47.420;9.310;2022-08-19T09:26:13;15.80;99.90
31271;DHT22;17904;47.420;9.310;2022-08-19T09:28:45;15.80;99.90
31271;DHT22;17904;47.420;9.310;2022-08-19T09:31:18;15.80;99.90
31271;DHT22;17904;47.420;9.310;2022-08-19T09:33:47;15.80;99.90
31271;DHT22;17904;47.420;9.310;2022-08-19T09:36:19;15.80;99.90
31271;DHT22;17904;47.420;9.310;2022-08-19T09:38:56;15.80;99.90
31271;DHT22;17904;47.420;9.310;2022-08-19T09:41:24;15.80;99.90
31271;DHT22;17904;47.420;9.310;2022-08-19T09:43:56;15.80;99.90
31271;DHT22;17904;47.420;9.310;2022-08-19T09:46:25;15.80;99.90
31271;DHT22;17904;47.420;9.310;2022-08-19T09:48:53;15.80;99.90
31271;DHT22;17904;47.420;9.310;2022-08-19T09:51:24;15.80;99.90
31271;DHT22;17904;47.420;9.310;2022-08-19T09:53:52;15.80;99.90
31271;DHT22;17904;47.420;9.310;2022-08-19T09:56:21;15.80;99.90
31271;DHT22;17904;47.420;9.310;2022-08-19T09:58:50;15.80;99.90
31271;DHT22;17904;47.420;9.310;2022-08-19T10:01:22;15.80;99.90
31271;DHT22;17904;47.420;9.310;2022-08-19T10:03:52;15.80;99.90
31271;DHT22;17904;47.420;9.310;2022-08-19T10:06:22;15.80;99.90
31271;DHT22;17904;47.420;9.310;2022-08-19T10:09:10;15.80;99.90
31271;DHT22;17904;47.420;9.310;2022-08-19T10:11:40;15.80;99.90
31271;DHT22;17904;47.420;9.310;2022-08-19T10:14:19;15.80;99.90
31271;DHT22;17904;47.420;9.310;2022-08-19T10:16:49;15.80;99.90
31271;DHT22;17904;47.420;9.310;2022-08-19T10:19:19;15.80;99.90
31271;DHT22;17904;47.420;9.310;2022-08-19T10:21:53;15.70;99.90
31271;DHT22;17904;47.420;9.310;2022-08-19T10:24:26;15.70;99.90
31271;DHT22;17904;47.420;9.310;2022-08-19T10:26:54;15.70;99.90
31271;DHT22;17904;47.420;9.310;2022-08-19T10:29:25;15.70;99.90
31271;DHT22;17904;47.420;9.310;2022-08-19T10:32:00;15.70;99.90
31271;DHT22;17904;47.420;9.310;2022-08-19T10:34:30;15.70;99.90
31271;DHT22;17904;47.420;9.310;2022-08-19T10:36:58;15.60;99.90
31271;DHT22;17904;47.420;9.310;2022-08-19T10:39:29;15.60;99.90
31271;DHT22;17904;47.420;9.310;2022-08-19T10:41:57;15.60;99.90
31271;DHT22;17904;47.420;9.310;2022-08-19T10:44:25;15.60;99.90
31271;DHT22;17904;47.420;9.310;2022-08-19T10:46:59;15.60;99.90
31271;DHT22;17904;47.420;9.310;2022-08-19T10:49:26;15.70;99.90
31271;DHT22;17904;47.420;9.310;2022-08-19T10:51:54;15.70;99.90
31271;DHT22;17904;47.420;9.310;2022-08-19T10:54:45;15.70;99.90
31271;DHT22;17904;47.420;9.310;2022-08-19T10:57:34;15.70;99.90
31271;DHT22;17904;47.420;9.310;2022-08-19T11:00:22;15.70;99.90
31271;DHT22;17904;47.420;9.310;2022-08-19T11:02:51;15.70;99.90
31271;DHT22;17904;47.420;9.310;2022-08-19T11:05:18;15.70;99.90
31271;DHT22;17904;47.420;9.310;2022-08-19T11:07:45;15.70;99.90
31271;DHT22;17904;47.420;9.310;2022-08-19T11:10:14;15.70;99.90
31271;DHT22;17904;47.420;9.310;2022-08-19T11:12:47;15.70;99.90
31271;DHT22;17904;47.420;9.310;2022-08-19T11:15:14;15.70;99.90
31271;DHT22;17904;47.420;9.310;2022-08-19T11:17:41;15.70;99.90
31271;DHT22;17904;47.420;9.310;2022-08-19T11:20:14;15.70;99.90
31271;DHT22;17904;47.420;9.310;2022-08-19T11:22:42;15.70;99.90
31271;DHT22;17904;47.420;9.310;2022-08-19T11:25:09;15.70;99.90
31271;DHT22;17904;47.420;9.310;2022-08-19T11:27:41;15.70;99.90
31271;DHT22;17904;47.420;9.310;2022-08-19T11:30:10;15.70;99.90
31271;DHT22;17904;47.420;9.310;2022-08-19T11:32:40;15.70;99.90
31271;DHT22;17904;47.420;9.310;2022-08-19T11:35:14;15.70;99.90
31271;DHT22;17904;47.420;9.310;2022-08-19T11:37:41;15.60;99.90
31271;DHT22;17904;47.420;9.310;2022-08-19T11:40:08;15.60;99.90
31271;DHT22;17904;47.420;9.310;2022-08-19T11:42:35;15.60;99.90
31271;DHT22;17904;47.420;9.310;2022-08-19T11:45:20;15.60;99.90
31271;DHT22;17904;47.420;9.310;2022-08-19T11:47:47;15.60;99.90
31271;DHT22;17904;47.420;9.310;2022-08-19T11:50:15;15.60;99.90
31271;DHT22;17904;47.420;9.310;2022-08-19T11:52:43;15.60;99.90
31271;DHT22;17904;47.420;9.310;2022-08-19T11:55:13;15.60;99.90
31271;DHT22;17904;47.420;9.310;2022-08-19T11:57:40;15.60;99.90
31271;DHT22;17904;47.420;9.310;2022-08-19T12:00:11;15.60;99.90
31271;DHT22;17904;47.420;9.310;2022-08-19T12:02:41;15.60;99.90
31271;DHT22;17904;47.420;9.310;2022-08-19T12:05:09;15.50;99.90
31271;DHT22;17904;47.420;9.310;2022-08-19T12:07:39;15.50;99.90
31271;DHT22;17904;47.420;9.310;2022-08-19T12:10:07;15.60;99.90
31271;DHT22;17904;47.420;9.310;2022-08-19T12:12:36;15.50;99.90
31271;DHT22;17904;47.420;9.310;2022-08-19T12:15:07;15.50;99.90
31271;DHT22;17904;47.420;9.310;2022-08-19T12:17:34;15.50;99.90
31271;DHT22;17904;47.420;9.310;2022-08-19T12:20:01;15.50;99.90
31271;DHT22;17904;47.420;9.310;2022-08-19T12:22:28;15.40;99.90
31271;DHT22;17904;47.420;9.310;2022-08-19T12:24:55;15.50;99.90
31271;DHT22;17904;47.420;9.310;2022-08-19T12:27:22;15.50;99.90
31271;DHT22;17904;47.420;9.310;2022-08-19T12:30:09;15.50;99.90
31271;DHT22;17904;47.420;9.310;2022-08-19T12:32:37;15.50;99.90
31271;DHT22;17904;47.420;9.310;2022-08-19T12:35:06;15.50;99.90
31271;DHT22;17904;47.420;9.310;2022-08-19T12:37:33;15.50;99.90
31271;DHT22;17904;47.420;9.310;2022-08-19T12:40:00;15.50;99.90
31271;DHT22;17904;47.420;9.310;2022-08-19T12:42:27;15.50;99.90
31271;DHT22;17904;47.420;9.310;2022-08-19T12:44:55;15.50;99.90
31271;DHT22;17904;47.420;9.310;2022-08-19T12:47:22;15.50;99.90
31271;DHT22;17904;47.420;9.310;2022-08-19T12:49:48;15.50;99.90
31271;DHT22;17904;47.420;9.310;2022-08-19T12:52:25;15.50;99.90
31271;DHT22;17904;47.420;9.310;2022-08-19T12:54:54;15.50;99.90
31271;DHT22;17904;47.420;9.310;2022-08-19T12:57:24;15.50;99.90
31271;DHT22;17904;47.420;9.310;2022-08-19T13:00:11;15.50;99.90
31271;DHT22;17904;47.420;9.310;2022-08-19T13:02:41;15.50;99.90
31271;DHT22;17904;47.420;9.310;2022-08-19T13:05:12;15.60;99.90
31271;DHT22;17904;47.420;9.310;2022-08-19T13:07:40;15.60;99.90
31271;DHT22;17904;47.420;9.310;2022-08-19T13:10:09;15.60;99.90
31271;DHT22;17904;47.420;9.310;2022-08-19T13:12:38;15.60;99.90
31271;DHT22;17904;47.420;9.310;2022-08-19T13:15:05;15.70;99.90
31271;DHT22;17904;47.420;9.310;2022-08-19T13:17:38;15.70;99.90
31271;DHT22;17904;47.420;9.310;2022-08-19T13:20:09;15.70;99.90
31271;DHT22;17904;47.420;9.310;2022-08-19T13:22:37;15.70;99.90
31271;DHT22;17904;47.420;9.310;2022-08-19T13:25:05;15.70;99.90
31271;DHT22;17904;47.420;9.310;2022-08-19T13:27:32;15.70;99.90
31271;DHT22;17904;47.420;9.310;2022-08-19T13:30:00;15.70;99.90
31271;DHT22;17904;47.420;9.310;2022-08-19T13:32:45;15.70;99.90
31271;DHT22;17904;47.420;9.310;2022-08-19T13:35:31;15.70;99.90
31271;DHT22;17904;47.420;9.310;2022-08-19T13:37:58;15.70;99.90
31271;DHT22;17904;47.420;9.310;2022-08-19T13:40:25;15.70;99.90
31271;DHT22;17904;47.420;9.310;2022-08-19T13:42:54;15.70;99.90
31271;DHT22;17904;47.420;9.310;2022-08-19T13:45:23;15.70;99.90
31271;DHT22;17904;47.420;9.310;2022-08-19T13:47:52;15.70;99.90
31271;DHT22;17904;47.420;9.310;2022-08-19T13:50:30;15.70;99.90
31271;DHT22;17904;47.420;9.310;2022-08-19T13:53:00;15.70;99.90
31271;DHT22;17904;47.420;9.310;2022-08-19T13:55:28;15.70;99.90
31271;DHT22;17904;47.420;9.310;2022-08-19T13:57:56;15.70;99.90
31271;DHT22;17904;47.420;9.310;2022-08-19T14:00:26;15.70;99.90
31271;DHT22;17904;47.420;9.310;2022-08-19T14:02:55;15.70;99.90
31271;DHT22;17904;47.420;9.310;2022-08-19T14:05:24;15.80;99.90
31271;DHT22;17904;47.420;9.310;2022-08-19T14:07:51;15.80;99.90
31271;DHT22;17904;47.420;9.310;2022-08-19T14:10:19;15.80;99.90
31271;DHT22;17904;47.420;9.310;2022-08-19T14:12:47;15.80;99.90
31271;DHT22;17904;47.420;9.310;2022-08-19T14:15:14;15.80;99.90
31271;DHT22;17904;47.420;9.310;2022-08-19T14:17:43;15.80;99.90
31271;DHT22;17904;47.420;9.310;2022-08-19T14:20:11;15.80;99.90
31271;DHT22;17904;47.420;9.310;2022-08-19T14:22:45;15.90;99.90
31271;DHT22;17904;47.420;9.310;2022-08-19T14:25:18;15.90;99.90
31271;DHT22;17904;47.420;9.310;2022-08-19T14:27:46;15.90;99.90
31271;DHT22;17904;47.420;9.310;2022-08-19T14:30:16;15.90;99.90
31271;DHT22;17904;47.420;9.310;2022-08-19T14:32:43;15.90;99.90
31271;DHT22;17904;47.420;9.310;2022-08-19T14:35:12;15.80;99.90
31271;DHT22;17904;47.420;9.310;2022-08-19T14:37:40;15.80;99.90
31271;DHT22;17904;47.420;9.310;2022-08-19T14:40:13;15.80;99.90
31271;DHT22;17904;47.420;9.310;2022-08-19T14:42:41;15.80;99.90
31271;DHT22;17904;47.420;9.310;2022-08-19T14:45:09;15.80;99.90
31271;DHT22;17904;47.420;9.310;2022-08-19T14:47:37;15.80;99.90
31271;DHT22;17904;47.420;9.310;2022-08-19T14:50:08;15.80;99.90
31271;DHT22;17904;47.420;9.310;2022-08-19T14:52:37;15.80;99.90
31271;DHT22;17904;47.420;9.310;2022-08-19T14:55:04;15.80;99.90
31271;DHT22;17904;47.420;9.310;2022-08-19T14:57:33;15.70;99.90
31271;DHT22;17904;47.420;9.310;2022-08-19T15:00:00;15.70;99.90
31271;DHT22;17904;47.420;9.310;2022-08-19T15:02:27;15.80;99.90
31271;DHT22;17904;47.420;9.310;2022-08-19T15:05:01;15.80;99.90
31271;DHT22;17904;47.420;9.310;2022-08-19T15:07:28;15.80;99.90
31271;DHT22;17904;47.420;9.310;2022-08-19T15:09:56;15.80;99.90
31271;DHT22;17904;47.420;9.310;2022-08-19T15:12:23;15.80;99.90
31271;DHT22;17904;47.420;9.310;2022-08-19T15:14:52;15.90;99.90
31271;DHT22;17904;47.420;9.310;2022-08-19T15:17:22;15.90;99.90
31271;DHT22;17904;47.420;9.310;2022-08-19T15:20:11;15.90;99.90
31271;DHT22;17904;47.420;9.310;2022-08-19T15:22:39;15.90;99.90
31271;DHT22;17904;47.420;9.310;2022-08-19T15:25:08;15.90;99.90
31271;DHT22;17904;47.420;9.310;2022-08-19T15:27:38;15.80;99.90
31271;DHT22;17904;47.420;9.310;2022-08-19T15:30:09;15.90;99.90
31271;DHT22;17904;47.420;9.310;2022-08-19T15:32:37;15.90;99.90
31271;DHT22;17904;47.420;9.310;2022-08-19T15:35:05;15.90;99.90
31271;DHT22;17904;47.420;9.310;2022-08-19T15:37:32;15.90;99.90
31271;DHT22;17904;47.420;9.310;2022-08-19T15:40:05;15.90;99.90
31271;DHT22;17904;47.420;9.310;2022-08-19T15:42:32;15.80;99.90
31271;DHT22;17904;47.420;9.310;2022-08-19T15:45:01;15.90;99.90
31271;DHT22;17904;47.420;9.310;2022-08-19T15:47:29;15.90;99.90
31271;DHT22;17904;47.420;9.310;2022-08-19T15:50:10;15.90;99.90
31271;DHT22;17904;47.420;9.310;2022-08-19T15:52:46;15.90;99.90
31271;DHT22;17904;47.420;9.310;2022-08-19T15:55:17;15.90;99.90
31271;DHT22;17904;47.420;9.310;2022-08-19T15:58:03;15.90;99.90